CVF weather

Courchevel Airport
Courcheval, Rhône Alpes, France

Public forecast

Using degrees Celsius for public forecast. Weather courtesy of forecast.io.

Closest aviation weather report (METAR) to Courchevel Airport

Closest report is Chambéry-Savoie Airport, 34.9 nm (64.6 km) WNW. Retrieved 2019/10/14 21:30 UTC (49 seconds ago):

LFLB 142130Z AUTO 00000KT CAVOK 14/12 Q1011

Closest aviation forecast (TAF) to Courchevel Airport

Closest forecast is Chambéry-Savoie Airport, 34.9 nm (64.6 km) WNW. Retrieved 2019/10/14 19:09 UTC (2 hours ago):

TAF TAF LFLB 141903Z 1419/1512 CNL